Time;durP1;ratioP1;P1;durP2;ratioP2;P2;SDS_P1;SDS_P2;PMS_P1;PMS_P2;Temp;Humidity;BMP_temperature;BMP_pressure;BME280_temperature;BME280_humidity;BME280_pressure;Samples;Min_cycle;Max_cycle;Signal;HPM_P1;HPM_P2
2023/03/26 00:00:04;;;;;;;6.80;4.33;;;13.30;99.90;;;;;;4589695;19;20026;-30
2023/03/26 00:01:36;;;;;;;6.03;3.73;;;13.30;99.90;;;;;;4588631;19;21165;-30
2023/03/26 00:03:10;;;;;;;8.05;4.50;;;13.30;99.90;;;;;;4592983;19;20014;-30
2023/03/26 00:04:41;;;;;;;6.43;4.43;;;13.30;99.90;;;;;;4591535;19;20086;-30
2023/03/26 00:06:15;;;;;;;6.17;4.03;;;13.30;99.90;;;;;;4594874;19;20488;-32
2023/03/26 00:07:47;;;;;;;6.87;4.07;;;13.30;99.90;;;;;;4592330;19;20070;-29
2023/03/26 00:09:20;;;;;;;6.30;3.87;;;13.30;99.90;;;;;;4594133;19;20057;-30
2023/03/26 00:10:52;;;;;;;5.57;3.63;;;13.30;99.90;;;;;;4594598;19;21063;-35
2023/03/26 00:12:23;;;;;;;5.85;4.00;;;13.30;99.90;;;;;;4594868;19;20046;-32
2023/03/26 00:13:58;;;;;;;7.07;4.45;;;13.30;99.90;;;;;;4593512;19;20034;-30
2023/03/26 00:15:31;;;;;;;7.43;4.07;;;13.30;99.90;;;;;;4594101;19;20365;-29
2023/03/26 00:17:03;;;;;;;6.73;4.50;;;13.30;99.90;;;;;;4591250;19;20022;-30
2023/03/26 00:18:34;;;;;;;7.78;4.47;;;13.30;99.90;;;;;;4594267;19;20037;-30
2023/03/26 00:20:07;;;;;;;9.35;4.68;;;13.30;99.90;;;;;;4592907;19;20464;-29
2023/03/26 00:21:38;;;;;;;8.27;4.50;;;13.30;99.90;;;;;;4591861;19;20019;-31
2023/03/26 00:23:09;;;;;;;7.75;5.35;;;13.30;99.90;;;;;;4591701;19;20022;-33
2023/03/26 00:24:44;;;;;;;7.65;4.63;;;13.30;99.90;;;;;;4593753;19;20022;-29
2023/03/26 00:26:16;;;;;;;6.63;4.63;;;13.30;99.90;;;;;;4593054;19;20025;-30
2023/03/26 00:27:48;;;;;;;7.40;5.15;;;13.30;99.90;;;;;;4591204;19;20011;-29
2023/03/26 00:29:21;;;;;;;8.33;5.43;;;13.30;99.90;;;;;;4594899;19;20447;-30
2023/03/26 00:31:01;;;;;;;8.57;4.83;;;13.30;99.90;;;;;;4593347;19;20018;-30
2023/03/26 00:32:32;;;;;;;8.47;5.37;;;13.30;99.90;;;;;;4594397;19;20007;-29
2023/03/26 00:34:04;;;;;;;7.53;4.68;;;13.20;99.90;;;;;;4593783;19;20014;-33
2023/03/26 00:35:36;;;;;;;6.85;4.45;;;13.20;99.90;;;;;;4592797;19;20018;-34
2023/03/26 00:37:07;;;;;;;6.40;4.43;;;13.20;99.90;;;;;;4592447;19;20021;-30
2023/03/26 00:38:39;;;;;;;8.05;5.43;;;13.20;99.90;;;;;;4593965;19;20019;-30
2023/03/26 00:40:11;;;;;;;8.20;5.20;;;13.30;99.90;;;;;;4592334;19;20096;-29
2023/03/26 00:41:43;;;;;;;8.37;4.80;;;13.30;99.90;;;;;;4592708;19;20096;-29
2023/03/26 00:43:20;;;;;;;8.88;5.75;;;13.20;99.90;;;;;;4593972;19;20019;-30
2023/03/26 00:44:56;;;;;;;7.60;4.90;;;13.20;99.90;;;;;;4594495;19;20014;-30
2023/03/26 00:46:29;;;;;;;7.10;4.60;;;13.20;99.90;;;;;;4592247;19;20018;-30
2023/03/26 00:48:00;;;;;;;8.27;4.50;;;13.20;99.90;;;;;;4592432;19;20037;-29
2023/03/26 00:49:32;;;;;;;8.00;4.38;;;13.20;99.90;;;;;;4593483;19;20453;-30
2023/03/26 00:51:03;;;;;;;8.05;5.25;;;13.20;99.90;;;;;;4593359;19;20034;-30
2023/03/26 00:52:35;;;;;;;;;;;13.20;99.90;;;;;;4593814;19;20672;-30
2023/03/26 00:54:07;;;;;;;11.13;5.20;;;13.20;99.90;;;;;;4592132;19;19914;-30
2023/03/26 00:55:40;;;;;;;6.87;4.43;;;13.20;99.90;;;;;;4594398;19;20089;-32
2023/03/26 00:57:12;;;;;;;5.47;3.77;;;13.20;99.90;;;;;;4593172;19;20019;-30
2023/03/26 00:58:44;;;;;;;7.22;4.38;;;13.20;99.90;;;;;;4592990;19;20034;-32
2023/03/26 01:00:16;;;;;;;7.40;4.53;;;13.10;99.90;;;;;;4592642;19;20483;-30
2023/03/26 01:01:48;;;;;;;;;;;13.10;99.90;;;;;;4592078;19;20471;-32
2023/03/26 01:03:20;;;;;;;6.07;4.07;;;13.20;99.90;;;;;;4590797;19;20269;-30
2023/03/26 01:04:55;;;;;;;8.60;4.33;;;13.10;99.90;;;;;;4591094;19;20457;-30
2023/03/26 01:06:31;;;;;;;7.77;4.90;;;13.20;99.90;;;;;;4590269;19;20087;-30
2023/03/26 01:08:21;;;;;;;7.37;4.57;;;13.10;99.90;;;;;;4589592;19;20836;-29
2023/03/26 01:09:53;;;;;;;6.80;4.10;;;13.10;99.90;;;;;;4590253;19;20456;-31
2023/03/26 01:11:30;;;;;;;6.00;3.57;;;13.10;99.90;;;;;;4591120;19;20022;-30
2023/03/26 01:13:01;;;;;;;7.47;4.23;;;13.20;99.90;;;;;;4589570;19;20066;-32
2023/03/26 01:14:33;;;;;;;;;;;13.10;99.90;;;;;;4589796;19;20031;-31
2023/03/26 01:16:08;;;;;;;7.23;4.03;;;13.10;99.90;;;;;;4591634;19;19922;-31
2023/03/26 01:17:41;;;;;;;8.10;5.13;;;13.10;99.90;;;;;;4590725;19;20096;-30
2023/03/26 01:19:21;;;;;;;7.93;4.37;;;13.10;99.90;;;;;;4590889;19;20014;-33
2023/03/26 01:20:57;;;;;;;7.30;4.60;;;13.10;99.90;;;;;;4589780;19;20503;-33
2023/03/26 01:22:28;;;;;;;9.83;4.57;;;13.10;99.90;;;;;;4589579;19;20034;-30
2023/03/26 01:24:01;;;;;;;7.95;4.25;;;13.10;99.90;;;;;;4591372;19;20006;-30
2023/03/26 01:25:36;;;;;;;7.77;3.97;;;13.10;99.90;;;;;;4589995;19;20006;-31
2023/03/26 01:27:11;;;;;;;9.33;4.37;;;13.10;99.90;;;;;;4590718;19;20014;-31
2023/03/26 01:28:42;;;;;;;7.03;4.23;;;13.10;99.90;;;;;;4589802;19;20491;-30
2023/03/26 01:30:33;;;;;;;7.50;3.90;;;13.10;99.90;;;;;;4589858;19;20010;-30
2023/03/26 01:32:20;;;;;;;8.07;4.10;;;13.10;99.90;;;;;;4590956;19;20022;-29
2023/03/26 01:33:57;;;;;;;8.10;4.23;;;13.10;99.90;;;;;;4592567;19;21190;-30
2023/03/26 01:35:34;;;;;;;8.13;4.40;;;13.10;99.90;;;;;;4592551;19;20053;-30
2023/03/26 01:37:14;;;;;;;9.30;4.27;;;13.10;99.90;;;;;;4590735;19;20019;-30
2023/03/26 01:38:50;;;;;;;6.97;3.83;;;13.10;99.90;;;;;;4592904;19;20026;-30
2023/03/26 01:40:45;;;;;;;6.77;4.00;;;13.10;99.90;;;;;;4589797;19;20019;-32
2023/03/26 01:42:41;;;;;;;7.53;4.37;;;13.10;99.90;;;;;;4591603;19;20700;-30
2023/03/26 01:44:34;;;;;;;7.10;4.37;;;13.10;99.90;;;;;;4591713;19;20019;-32
2023/03/26 01:46:08;;;;;;;6.47;3.73;;;13.10;99.90;;;;;;4591029;19;20360;-30
2023/03/26 01:47:39;;;;;;;8.03;4.47;;;13.10;99.90;;;;;;4592223;19;20457;-34
2023/03/26 01:49:11;;;;;;;6.28;3.97;;;13.10;99.90;;;;;;4590711;19;20364;-30
2023/03/26 01:50:43;;;;;;;7.93;4.07;;;13.10;99.90;;;;;;4592250;19;20016;-31
2023/03/26 01:52:18;;;;;;;7.22;4.93;;;13.10;99.90;;;;;;4591660;19;20025;-30
2023/03/26 01:53:49;;;;;;;6.30;4.10;;;13.10;99.90;;;;;;4589995;19;20010;-32
2023/03/26 01:55:25;;;;;;;6.83;4.33;;;13.10;99.90;;;;;;4592148;19;20353;-31
2023/03/26 01:57:20;;;;;;;7.73;4.20;;;13.10;99.90;;;;;;4590754;19;20461;-30
2023/03/26 01:59:09;;;;;;;6.17;3.83;;;13.10;99.90;;;;;;4591548;19;20021;-31
2023/03/26 02:00:44;;;;;;;6.33;3.53;;;13.10;99.90;;;;;;4591828;19;20015;-30
2023/03/26 02:02:21;;;;;;;5.70;3.97;;;13.10;99.90;;;;;;4590414;19;20018;-30
2023/03/26 02:03:55;;;;;;;6.20;3.67;;;13.10;99.90;;;;;;4592636;19;20017;-30
2023/03/26 02:05:32;;;;;;;9.30;4.13;;;13.10;99.90;;;;;;4590814;19;20034;-30
2023/03/26 02:07:10;;;;;;;6.77;3.93;;;13.00;99.90;;;;;;4592574;19;20022;-30
2023/03/26 02:08:46;;;;;;;7.60;4.40;;;13.00;99.90;;;;;;4592291;19;20360;-29
2023/03/26 02:10:32;;;;;;;5.83;3.97;;;13.00;99.90;;;;;;4590142;19;20456;-30
2023/03/26 02:12:04;;;;;;;7.17;3.90;;;13.00;99.90;;;;;;4591265;19;20583;-30
2023/03/26 02:13:36;;;;;;;7.90;4.20;;;13.00;99.90;;;;;;4590638;19;20015;-30
2023/03/26 02:15:10;;;;;;;7.70;4.10;;;13.00;99.90;;;;;;4590770;19;20388;-36
2023/03/26 02:16:45;;;;;;;7.40;4.37;;;13.00;99.90;;;;;;4590661;19;20014;-30
2023/03/26 02:18:16;;;;;;;7.33;4.57;;;13.00;99.90;;;;;;4591413;19;20449;-30
2023/03/26 02:19:47;;;;;;;7.25;4.45;;;13.10;99.90;;;;;;4591123;19;21032;-31
2023/03/26 02:21:21;;;;;;;6.03;4.15;;;13.10;99.90;;;;;;4591141;19;20011;-30
2023/03/26 02:22:52;;;;;;;8.00;4.30;;;13.10;99.90;;;;;;4592396;19;20094;-30
2023/03/26 02:24:26;;;;;;;5.97;4.13;;;13.10;99.90;;;;;;4590751;19;20023;-30
2023/03/26 02:25:57;;;;;;;6.53;4.78;;;13.10;99.90;;;;;;4590045;19;20018;-29
2023/03/26 02:27:28;;;;;;;7.15;4.35;;;13.10;99.90;;;;;;4592265;19;20062;-31
2023/03/26 02:29:03;;;;;;;6.33;3.90;;;13.10;99.90;;;;;;4591065;19;20578;-30
2023/03/26 02:30:34;;;;;;;7.20;4.20;;;13.10;99.90;;;;;;4592423;19;20441;-30
2023/03/26 02:32:07;;;;;;;10.45;5.38;;;13.10;99.90;;;;;;4591146;19;20011;-30
2023/03/26 02:33:39;;;;;;;8.00;4.33;;;13.10;99.90;;;;;;4591780;19;20014;-30
2023/03/26 02:35:11;;;;;;;7.25;4.35;;;13.10;99.90;;;;;;4591295;19;20031;-30
2023/03/26 02:36:42;;;;;;;7.25;4.40;;;13.00;99.90;;;;;;4588890;19;20014;-29
2023/03/26 02:38:15;;;;;;;6.43;3.80;;;13.00;99.90;;;;;;4590803;19;20066;-30
2023/03/26 02:39:49;;;;;;;6.90;3.87;;;13.00;99.90;;;;;;4591087;19;20015;-31
2023/03/26 02:41:21;;;;;;;6.47;3.90;;;13.00;99.90;;;;;;4590792;19;20014;-30
2023/03/26 02:42:54;;;;;;;5.80;3.77;;;13.00;99.90;;;;;;4591049;19;21021;-30
2023/03/26 02:44:26;;;;;;;7.37;3.60;;;13.00;99.90;;;;;;4591379;19;20425;-30
2023/03/26 02:45:57;;;;;;;6.40;4.15;;;13.00;99.90;;;;;;4591723;19;20065;-30
2023/03/26 02:47:30;;;;;;;7.72;3.55;;;13.00;99.90;;;;;;4591499;19;20379;-32
2023/03/26 02:49:03;;;;;;;5.60;3.40;;;13.00;99.90;;;;;;4591296;19;20012;-29
2023/03/26 02:50:35;;;;;;;6.57;3.83;;;13.00;99.90;;;;;;4591134;19;20476;-33
2023/03/26 02:52:07;;;;;;;7.80;3.70;;;13.00;99.90;;;;;;4591609;19;20006;-30
2023/03/26 02:53:40;;;;;;;7.70;3.40;;;13.00;99.90;;;;;;4591667;19;20447;-31
2023/03/26 02:55:12;;;;;;;5.27;3.30;;;13.00;99.90;;;;;;4591590;19;20015;-30
2023/03/26 02:56:44;;;;;;;6.37;3.60;;;13.00;99.90;;;;;;4589931;19;20017;-30
2023/03/26 02:58:17;;;;;;;4.70;2.87;;;12.90;99.90;;;;;;4590758;19;20017;-33
2023/03/26 02:59:51;;;;;;;6.40;3.57;;;12.90;99.90;;;;;;4591383;19;20011;-30
2023/03/26 03:01:23;;;;;;;6.00;3.30;;;12.90;99.90;;;;;;4590088;19;20476;-30
2023/03/26 03:02:56;;;;;;;5.03;2.92;;;13.00;99.90;;;;;;4590197;19;20482;-30
2023/03/26 03:04:28;;;;;;;7.23;3.13;;;13.00;99.90;;;;;;4589931;19;20465;-31
2023/03/26 03:06:00;;;;;;;7.20;3.45;;;13.00;99.90;;;;;;4590140;19;20437;-30
2023/03/26 03:07:37;;;;;;;5.57;3.50;;;13.00;99.90;;;;;;4590600;19;20017;-30
2023/03/26 03:09:12;;;;;;;5.30;3.20;;;12.90;99.90;;;;;;4589742;19;20417;-30
2023/03/26 03:10:59;;;;;;;5.63;3.20;;;12.90;99.90;;;;;;4590861;19;20011;-33
2023/03/26 03:12:30;;;;;;;6.40;3.47;;;12.90;99.90;;;;;;4590727;19;20469;-30
2023/03/26 03:14:06;;;;;;;7.20;3.63;;;12.90;99.90;;;;;;4590830;19;20400;-30
2023/03/26 03:15:39;;;;;;;6.87;3.53;;;12.90;99.90;;;;;;4590798;19;20433;-29
2023/03/26 03:17:10;;;;;;;4.88;3.53;;;12.90;99.90;;;;;;4590762;19;20482;-30
2023/03/26 03:18:42;;;;;;;5.77;3.30;;;12.90;99.90;;;;;;4590912;19;20104;-30
2023/03/26 03:20:14;;;;;;;7.03;3.65;;;12.80;99.90;;;;;;4590412;19;20441;-32
2023/03/26 03:21:48;;;;;;;5.43;3.23;;;12.80;99.90;;;;;;4589067;19;20027;-31
2023/03/26 03:23:19;;;;;;;4.03;2.95;;;12.80;99.90;;;;;;4591203;19;21035;-31
2023/03/26 03:24:56;;;;;;;7.93;3.67;;;12.70;99.90;;;;;;4590065;19;20017;-30
2023/03/26 03:26:29;;;;;;;5.80;3.70;;;12.70;99.90;;;;;;4589890;19;20432;-29
2023/03/26 03:28:01;;;;;;;6.63;3.10;;;12.60;99.90;;;;;;4589141;19;20475;-30
2023/03/26 03:29:33;;;;;;;6.37;3.40;;;12.60;99.90;;;;;;4589893;19;20501;-32
2023/03/26 03:31:04;;;;;;;5.75;3.60;;;12.70;99.90;;;;;;4591245;19;20417;-30
2023/03/26 03:32:35;;;;;;;4.93;2.85;;;12.70;99.90;;;;;;4590099;19;20022;-31
2023/03/26 03:34:07;;;;;;;5.93;3.30;;;12.70;99.90;;;;;;4590615;19;20011;-30
2023/03/26 03:35:38;;;;;;;5.93;3.72;;;12.80;99.90;;;;;;4590227;19;20007;-30
2023/03/26 03:37:10;;;;;;;;;;;12.70;99.90;;;;;;4589985;19;20480;-30
2023/03/26 03:38:41;;;;;;;6.15;3.42;;;12.70;99.90;;;;;;4589242;19;19933;-30
2023/03/26 03:40:12;;;;;;;4.47;2.85;;;12.80;99.90;;;;;;4588536;19;20018;-30
2023/03/26 03:41:45;;;;;;;4.87;2.70;;;12.80;99.90;;;;;;4587732;19;20007;-30
2023/03/26 03:43:16;;;;;;;5.20;2.50;;;12.80;99.90;;;;;;4589682;19;20437;-30
2023/03/26 03:44:47;;;;;;;4.72;2.40;;;12.80;99.90;;;;;;4590316;19;20013;-30
2023/03/26 03:46:19;;;;;;;5.78;2.35;;;12.80;99.90;;;;;;4590077;19;20018;-30
2023/03/26 03:47:52;;;;;;;7.43;2.53;;;12.80;99.90;;;;;;4590671;19;20463;-30
2023/03/26 03:49:23;;;;;;;4.00;1.90;;;12.90;99.90;;;;;;4590707;19;20793;-30
2023/03/26 03:50:55;;;;;;;5.20;2.42;;;12.80;99.90;;;;;;4589070;19;20046;-30
2023/03/26 03:52:27;;;;;;;5.33;2.63;;;12.80;99.90;;;;;;4589902;19;20006;-30
2023/03/26 03:54:01;;;;;;;5.50;1.83;;;12.90;99.90;;;;;;4590514;19;20531;-31
2023/03/26 03:55:37;;;;;;;;;;;12.80;99.90;;;;;;4590817;19;20445;-29
2023/03/26 03:57:08;;;;;;;5.47;2.60;;;12.90;99.90;;;;;;4589728;19;19926;-31
2023/03/26 03:58:40;;;;;;;5.82;2.33;;;12.90;99.90;;;;;;4590647;19;20519;-32
2023/03/26 04:00:13;;;;;;;4.13;2.47;;;12.90;99.90;;;;;;4590178;19;20347;-30
2023/03/26 04:01:45;;;;;;;6.50;2.27;;;12.90;99.90;;;;;;4588748;19;20492;-29
2023/03/26 04:03:18;;;;;;;3.90;2.00;;;12.90;99.90;;;;;;4590038;19;20449;-31
2023/03/26 04:04:53;;;;;;;;;;;12.90;99.90;;;;;;4591051;19;20520;-32
2023/03/26 04:06:24;;;;;;;3.70;2.20;;;12.90;99.90;;;;;;4590469;19;19926;-30
2023/03/26 04:07:55;;;;;;;4.05;2.30;;;12.90;99.90;;;;;;4590089;19;20461;-31
2023/03/26 04:09:27;;;;;;;3.97;2.30;;;12.90;99.90;;;;;;4589804;19;20373;-30
2023/03/26 04:10:59;;;;;;;;;;;12.90;99.90;;;;;;4591136;19;20483;-30
2023/03/26 04:12:31;;;;;;;4.18;2.30;;;12.90;99.90;;;;;;4589667;19;20339;-30
2023/03/26 04:14:03;;;;;;;4.27;2.33;;;12.90;99.90;;;;;;4588492;19;20010;-30
2023/03/26 04:15:35;;;;;;;3.88;2.20;;;12.90;99.90;;;;;;4588454;19;20445;-29
2023/03/26 04:17:06;;;;;;;7.22;2.55;;;12.90;99.90;;;;;;4589674;19;20018;-32
2023/03/26 04:18:40;;;;;;;4.73;2.40;;;13.00;99.90;;;;;;4589365;19;20025;-30
2023/03/26 04:20:14;;;;;;;4.18;2.70;;;12.90;99.90;;;;;;4589606;19;20460;-30
2023/03/26 04:21:48;;;;;;;7.50;3.10;;;12.90;99.90;;;;;;4588576;19;20096;-31
2023/03/26 04:23:21;;;;;;;4.47;2.63;;;13.00;99.90;;;;;;4590076;19;20444;-31
2023/03/26 04:24:53;;;;;;;3.90;2.63;;;13.00;99.90;;;;;;4589251;19;20449;-32
2023/03/26 04:26:24;;;;;;;4.20;2.73;;;12.90;99.90;;;;;;4589522;19;20473;-29
2023/03/26 04:28:05;;;;;;;6.70;3.10;;;12.90;99.90;;;;;;4589500;19;20828;-31
2023/03/26 04:29:41;;;;;;;6.63;3.47;;;12.90;99.90;;;;;;4588293;19;20445;-30
2023/03/26 04:31:17;;;;;;;6.90;3.73;;;12.90;99.90;;;;;;4588052;19;20413;-30
2023/03/26 04:32:48;;;;;;;6.30;4.03;;;12.90;99.90;;;;;;4588488;19;20431;-34
2023/03/26 04:34:22;;;;;;;5.75;3.47;;;12.90;99.90;;;;;;4588947;19;20037;-30
2023/03/26 04:35:55;;;;;;;5.83;3.83;;;12.90;99.90;;;;;;4588660;19;20017;-32
2023/03/26 04:37:38;;;;;;;6.53;3.97;;;12.90;99.90;;;;;;4588116;19;20425;-30
2023/03/26 04:39:11;;;;;;;6.50;4.30;;;12.90;99.90;;;;;;4588879;19;20532;-30
2023/03/26 04:40:46;;;;;;;;;;;12.90;99.90;;;;;;4589401;19;20421;-33
2023/03/26 04:42:18;;;;;;;5.50;3.33;;;12.90;99.90;;;;;;4589706;19;19915;-30
2023/03/26 04:43:52;;;;;;;5.10;4.23;;;12.90;99.90;;;;;;4589435;19;20467;-30
2023/03/26 04:45:24;;;;;;;6.60;3.80;;;12.80;99.90;;;;;;4587842;19;20400;-31
2023/03/26 04:46:57;;;;;;;6.63;3.80;;;12.80;99.90;;;;;;4588970;19;20433;-29
2023/03/26 04:48:29;;;;;;;5.60;3.70;;;12.70;99.90;;;;;;4590605;19;20413;-30
2023/03/26 04:50:00;;;;;;;5.93;3.97;;;12.70;99.90;;;;;;4593431;19;19999;-30
2023/03/26 04:51:37;;;;;;;5.37;3.60;;;12.70;99.90;;;;;;4593474;19;20019;-30
2023/03/26 04:53:15;;;;;;;7.33;3.90;;;12.70;99.90;;;;;;4592567;19;20425;-29
2023/03/26 04:54:48;;;;;;;6.03;3.70;;;12.70;99.90;;;;;;4593048;19;20413;-30
2023/03/26 04:56:39;;;;;;;5.57;3.58;;;12.60;99.90;;;;;;4592235;19;21035;-30
2023/03/26 04:58:12;;;;;;;7.13;3.50;;;12.70;99.90;;;;;;4593316;19;20021;-30
2023/03/26 04:59:45;;;;;;;4.87;3.17;;;12.60;99.90;;;;;;4592437;19;20570;-30
2023/03/26 05:01:17;;;;;;;5.53;3.30;;;12.70;99.90;;;;;;4592638;19;20373;-30
2023/03/26 05:02:49;;;;;;;5.60;3.10;;;12.70;99.90;;;;;;4592986;19;20440;-30
2023/03/26 05:04:20;;;;;;;;;;;12.70;99.90;;;;;;4594191;19;20017;-30
2023/03/26 05:05:51;;;;;;;5.40;2.63;;;12.70;99.90;;;;;;4593549;19;19911;-31
2023/03/26 05:07:22;;;;;;;5.82;2.60;;;12.70;99.90;;;;;;4592139;19;20022;-29
2023/03/26 05:08:54;;;;;;;4.50;2.90;;;12.80;99.90;;;;;;4593025;19;20523;-31
2023/03/26 05:10:27;;;;;;;4.30;2.77;;;12.80;99.90;;;;;;4593169;19;20014;-30
2023/03/26 05:11:58;;;;;;;5.97;3.33;;;12.80;99.90;;;;;;4593244;19;20437;-30
2023/03/26 05:13:32;;;;;;;5.30;2.63;;;12.70;99.90;;;;;;4591146;19;20013;-30
2023/03/26 05:15:05;;;;;;;5.63;2.63;;;12.80;99.90;;;;;;4593162;19;20487;-31
2023/03/26 05:16:38;;;;;;;3.90;2.77;;;12.70;99.90;;;;;;4592982;19;20014;-30
2023/03/26 05:18:10;;;;;;;5.40;2.80;;;12.80;99.90;;;;;;4591751;19;20459;-31
2023/03/26 05:19:42;;;;;;;5.00;2.90;;;12.80;99.90;;;;;;4592409;19;20047;-34
2023/03/26 05:21:15;;;;;;;7.13;3.33;;;12.80;99.90;;;;;;4591582;19;20701;-30
2023/03/26 05:22:48;;;;;;;4.93;3.13;;;12.80;99.90;;;;;;4592016;19;20039;-31
2023/03/26 05:24:19;;;;;;;6.13;3.25;;;12.80;99.90;;;;;;4592042;19;20010;-33
2023/03/26 05:25:50;;;;;;;4.93;3.00;;;12.80;99.90;;;;;;4592761;19;20021;-31
2023/03/26 05:27:23;;;;;;;6.97;3.90;;;12.80;99.90;;;;;;4592755;19;20011;-30
2023/03/26 05:28:55;;;;;;;5.03;3.37;;;12.80;99.90;;;;;;4593054;19;20483;-30
2023/03/26 05:30:27;;;;;;;5.50;4.30;;;12.80;99.90;;;;;;4592912;19;21074;-30
2023/03/26 05:31:58;;;;;;;5.90;3.53;;;12.80;99.90;;;;;;4592937;19;20440;-30
2023/03/26 05:33:30;;;;;;;6.60;3.70;;;12.80;99.90;;;;;;4591868;19;20018;-32
2023/03/26 05:35:07;;;;;;;5.77;3.50;;;12.80;99.90;;;;;;4592757;19;20463;-30
2023/03/26 05:36:37;;;;;;;4.38;2.58;;;12.80;99.90;;;;;;4592445;19;20015;-32
2023/03/26 05:38:09;;;;;;;4.88;2.70;;;12.90;99.90;;;;;;4593191;19;20452;-30
2023/03/26 05:39:42;;;;;;;4.50;2.70;;;12.90;99.90;;;;;;4592294;19;20022;-29
2023/03/26 05:41:15;;;;;;;5.03;2.73;;;12.90;99.90;;;;;;4591145;19;20014;-30
2023/03/26 05:42:47;;;;;;;4.50;2.80;;;12.90;99.90;;;;;;4592612;19;20981;-30
2023/03/26 05:44:21;;;;;;;4.57;3.10;;;12.90;99.90;;;;;;4593171;19;20006;-30
2023/03/26 05:45:53;;;;;;;5.40;3.27;;;12.90;99.90;;;;;;4591398;19;20433;-30
2023/03/26 05:47:28;;;;;;;6.32;3.60;;;12.90;99.90;;;;;;4592537;19;21086;-31
2023/03/26 05:49:00;;;;;;;4.60;3.03;;;12.90;99.90;;;;;;4592583;19;20013;-30
2023/03/26 05:50:34;;;;;;;7.50;3.23;;;12.80;99.90;;;;;;4592784;19;20373;-30
2023/03/26 05:52:06;;;;;;;5.93;3.50;;;12.80;99.90;;;;;;4592590;19;20432;-30
2023/03/26 05:53:39;;;;;;;5.87;4.03;;;12.70;99.90;;;;;;4592891;19;20011;-32
2023/03/26 05:55:12;;;;;;;5.67;4.10;;;12.70;99.90;;;;;;4591862;19;20484;-30
2023/03/26 05:56:43;;;;;;;6.57;4.28;;;12.60;99.90;;;;;;4591328;19;20521;-29
2023/03/26 05:58:15;;;;;;;5.60;3.63;;;12.50;99.90;;;;;;4591814;19;20022;-30
2023/03/26 05:59:46;;;;;;;7.55;4.72;;;12.50;99.90;;;;;;4591371;19;20038;-32
2023/03/26 06:01:18;;;;;;;5.78;3.67;;;12.60;99.90;;;;;;4591443;19;20405;-30
2023/03/26 06:02:50;;;;;;;6.23;3.70;;;12.70;99.90;;;;;;4591919;19;20162;-30
2023/03/26 06:04:21;;;;;;;5.38;3.72;;;12.70;99.90;;;;;;4590873;19;20556;-32
2023/03/26 06:05:54;;;;;;;5.77;3.63;;;12.80;99.90;;;;;;4591855;19;20010;-31
2023/03/26 06:07:27;;;;;;;6.13;3.63;;;12.80;99.90;;;;;;4589419;19;20006;-30
2023/03/26 06:08:58;;;;;;;5.27;3.60;;;12.80;99.90;;;;;;4591079;19;20055;-30
2023/03/26 06:10:29;;;;;;;7.45;3.67;;;12.80;99.90;;;;;;4591894;19;20469;-30
2023/03/26 06:12:00;;;;;;;;;;;12.70;99.90;;;;;;4592233;19;20027;-31
2023/03/26 06:13:31;;;;;;;6.13;3.83;;;12.60;99.90;;;;;;4590837;19;20344;-32
2023/03/26 06:15:03;;;;;;;6.65;3.60;;;12.60;99.90;;;;;;4589807;19;20018;-30
2023/03/26 06:16:34;;;;;;;5.65;3.70;;;12.60;99.90;;;;;;4591669;19;20030;-31
2023/03/26 06:18:05;;;;;;;6.40;4.10;;;12.70;99.90;;;;;;4590932;19;20010;-29
2023/03/26 06:19:37;;;;;;;6.60;3.92;;;12.70;99.90;;;;;;4591087;19;20018;-30
2023/03/26 06:21:08;;;;;;;4.95;3.70;;;12.80;99.90;;;;;;4591911;19;20030;-31
2023/03/26 06:22:41;;;;;;;5.40;4.00;;;12.80;99.90;;;;;;4589902;19;20015;-29
2023/03/26 06:24:15;;;;;;;5.10;3.27;;;12.80;99.90;;;;;;4591512;19;20249;-30
2023/03/26 06:26:06;;;;;;;6.40;3.37;;;12.90;99.90;;;;;;4590943;19;20014;-30
2023/03/26 06:27:38;;;;;;;4.77;3.40;;;12.90;99.90;;;;;;4592028;19;20014;-30
2023/03/26 06:29:11;;;;;;;5.03;3.67;;;12.80;99.90;;;;;;4592195;19;20010;-31
2023/03/26 06:30:42;;;;;;;;;;;12.80;99.90;;;;;;4592795;19;20037;-30
2023/03/26 06:32:15;;;;;;;6.47;3.90;;;12.80;99.90;;;;;;4591727;19;19999;-28
2023/03/26 06:33:47;;;;;;;5.43;3.53;;;12.80;99.90;;;;;;4589953;19;20021;-30
2023/03/26 06:35:19;;;;;;;5.90;3.83;;;12.70;99.90;;;;;;4589674;19;20461;-30
2023/03/26 06:36:51;;;;;;;6.47;3.65;;;12.80;99.90;;;;;;4590349;19;20444;-30
2023/03/26 06:38:24;;;;;;;7.07;3.33;;;12.80;99.90;;;;;;4589964;19;20031;-31
2023/03/26 06:39:55;;;;;;;6.40;4.10;;;12.90;99.90;;;;;;4589181;19;20014;-34
2023/03/26 06:41:28;;;;;;;6.73;4.07;;;13.00;99.90;;;;;;4588945;19;20086;-31
2023/03/26 06:42:59;;;;;;;12.77;4.57;;;13.00;99.90;;;;;;4592692;19;20022;-31
2023/03/26 06:44:31;;;;;;;7.82;4.53;;;13.00;99.90;;;;;;4591749;19;20022;-30
2023/03/26 06:46:03;;;;;;;6.50;4.30;;;13.00;99.90;;;;;;4591490;19;20007;-30
2023/03/26 06:47:35;;;;;;;6.93;4.30;;;13.00;99.90;;;;;;4592218;19;20014;-30
2023/03/26 06:49:06;;;;;;;5.50;4.43;;;12.90;99.90;;;;;;4592366;19;20018;-30
2023/03/26 06:50:40;;;;;;;6.20;3.80;;;13.00;99.90;;;;;;4591421;19;20014;-30
2023/03/26 06:52:12;;;;;;;4.93;3.70;;;13.00;99.90;;;;;;4590927;19;20579;-33
2023/03/26 06:53:44;;;;;;;6.40;4.05;;;13.00;99.90;;;;;;4589759;19;20037;-31
2023/03/26 06:55:17;;;;;;;6.57;4.10;;;13.00;99.90;;;;;;4590239;19;20014;-29
2023/03/26 06:56:48;;;;;;;6.53;4.28;;;13.00;99.90;;;;;;4589801;19;20018;-30
2023/03/26 06:58:20;;;;;;;5.28;3.60;;;12.90;99.90;;;;;;4589532;19;20391;-30
2023/03/26 06:59:52;;;;;;;6.63;4.10;;;12.90;99.90;;;;;;4589087;19;20022;-32
2023/03/26 07:01:24;;;;;;;6.13;4.13;;;12.90;99.90;;;;;;4588542;19;21052;-32
2023/03/26 07:02:58;;;;;;;6.90;4.07;;;12.90;99.90;;;;;;4587994;19;20035;-31
2023/03/26 07:04:29;;;;;;;6.93;3.63;;;12.90;99.90;;;;;;4591381;19;20359;-32
2023/03/26 07:06:00;;;;;;;7.10;5.15;;;12.90;99.90;;;;;;4591135;19;20030;-30
2023/03/26 07:07:32;;;;;;;;;;;12.90;99.90;;;;;;4590734;19;20021;-30
2023/03/26 07:09:03;;;;;;;8.93;5.57;;;12.90;99.90;;;;;;4590147;19;19911;-32
2023/03/26 07:10:36;;;;;;;6.90;4.30;;;12.80;99.90;;;;;;4589311;19;20468;-30
2023/03/26 07:12:08;;;;;;;6.60;4.23;;;12.90;99.90;;;;;;4590227;19;20417;-33
2023/03/26 07:13:40;;;;;;;5.53;3.92;;;12.70;99.90;;;;;;4588056;19;20527;-30
2023/03/26 07:15:11;;;;;;;5.18;3.40;;;12.80;99.90;;;;;;4591072;19;20101;-31
2023/03/26 07:16:43;;;;;;;6.50;3.63;;;12.80;99.90;;;;;;4588516;19;20010;-32
2023/03/26 07:18:14;;;;;;;6.18;3.90;;;12.90;99.90;;;;;;4589235;19;20086;-30
2023/03/26 07:19:45;;;;;;;7.32;4.47;;;12.80;99.90;;;;;;4591072;19;20018;-31
2023/03/26 07:21:18;;;;;;;5.73;4.17;;;12.90;99.90;;;;;;4589029;19;20018;-31
2023/03/26 07:22:50;;;;;;;6.07;4.23;;;12.90;99.90;;;;;;4589821;19;20453;-30
2023/03/26 07:24:21;;;;;;;5.97;3.60;;;12.90;99.90;;;;;;4590191;19;21025;-32
2023/03/26 07:25:55;;;;;;;5.47;4.23;;;13.00;99.90;;;;;;4589795;19;20021;-29
2023/03/26 07:27:44;;;;;;;7.25;5.10;;;12.90;99.90;;;;;;4589358;19;21083;-35
2023/03/26 07:29:40;;;;;;;6.97;4.90;;;12.90;99.90;;;;;;4589443;19;20487;-30
2023/03/26 07:31:20;;;;;;;7.30;5.00;;;12.90;99.90;;;;;;4589041;19;20470;-33
2023/03/26 07:32:59;;;;;;;6.60;4.80;;;13.00;99.90;;;;;;4590039;19;20015;-31
2023/03/26 07:34:56;;;;;;;7.50;4.63;;;12.90;99.90;;;;;;4589069;19;20484;-30
2023/03/26 07:36:38;;;;;;;5.03;4.00;;;13.00;99.90;;;;;;4589026;19;20011;-31
2023/03/26 07:38:37;;;;;;;6.05;4.28;;;13.00;99.90;;;;;;4589190;19;20017;-30
2023/03/26 07:40:33;;;;;;;6.43;4.00;;;13.00;99.90;;;;;;4589053;19;20015;-32
2023/03/26 07:42:25;;;;;;;5.57;3.70;;;13.00;99.90;;;;;;4589676;19;20477;-30
2023/03/26 07:43:56;;;;;;;;;;;13.00;99.90;;;;;;4591423;19;20499;-31
2023/03/26 07:45:41;;;;;;;5.70;3.73;;;13.00;99.90;;;;;;4590282;19;19974;-30
2023/03/26 07:47:25;;;;;;;5.43;4.07;;;13.00;99.90;;;;;;4589462;19;20507;-30
2023/03/26 07:48:58;;;;;;;5.23;4.20;;;13.00;99.90;;;;;;4590120;19;20453;-30
2023/03/26 07:50:30;;;;;;;7.30;4.10;;;13.00;99.90;;;;;;4590151;19;20465;-30
2023/03/26 07:52:02;;;;;;;6.53;4.33;;;12.90;99.90;;;;;;4589463;19;20445;-31
2023/03/26 07:53:34;;;;;;;5.60;4.00;;;12.90;99.90;;;;;;4585328;19;21166;-31
2023/03/26 07:55:06;;;;;;;7.05;4.18;;;12.80;99.90;;;;;;4588585;19;20092;-31
2023/03/26 07:56:54;;;;;;;5.93;4.00;;;12.70;99.90;;;;;;4587207;19;20019;-33
2023/03/26 07:58:55;;;;;;;6.90;4.40;;;12.70;99.90;;;;;;4587441;19;20018;-30
2023/03/26 08:00:35;;;;;;;6.20;4.57;;;12.70;99.90;;;;;;4588962;19;20469;-30
2023/03/26 08:02:30;;;;;;;7.67;4.97;;;12.80;99.90;;;;;;4586464;19;20910;-32
2023/03/26 08:04:13;;;;;;;10.63;6.27;;;12.80;99.90;;;;;;4587012;19;20483;-30
2023/03/26 08:06:02;;;;;;;7.30;5.03;;;12.90;99.90;;;;;;4589513;19;20010;-28
2023/03/26 08:07:41;;;;;;;7.30;5.30;;;12.90;99.90;;;;;;4590086;19;20535;-30
2023/03/26 08:09:59;;;;;;;8.60;5.53;;;12.90;99.90;;;;;;4588596;19;20438;-31
2023/03/26 08:11:37;;;;;;;7.67;5.80;;;13.00;99.90;;;;;;4586567;19;20094;-31
2023/03/26 08:13:33;;;;;;;8.67;6.37;;;13.00;99.90;;;;;;4584407;19;20461;-31